Whitmore Lake, MI (48189)

1:45 PM EDT on August 02, 2015 (GMT -0400)
Homestead | | Change Station
CLOSE
Current Station
Personal Weather Station
Location: Whitmore Lake, MI
Elevation: 919 ft
Nearby Weather Stations

Elev 919 ft 42.42 °N, 83.79 °W | Updated 7 seconds ago

Clear
Clear
86.2 °F
Feels Like 86 °F
N
6.0
Wind Variable Wind from WNW
Gusts 9.8 mph

Today
High -- | Low -- °F
--% Chance of Precip.
Yesterday
High -- | Low -- °F
Precip. -- in
6:28 AM 8:53 PM
Waning Gibbous, 93% visible
Pressure 29.81 in
Visibility 10.0 miles
Clouds Clear
Heat Index 86 °F
Dew Point 60 °F
Humidity 42%
Rainfall 0.00 in
Snow Depth Not available.
UV 8.0 out of 12
Pollen 8.40 out of 12
Air Quality Not available.
Flu Activity Not available.
METAR KARB 021653Z 22016G20KT 10SM CLR 29/19 A2982 RMK AO2 SLP094 T02940194

More Conditions Fewer Conditions

Pressure 29.81 in
Visibility 10.0 miles
Clouds Clear
Heat Index 86 °F
Dew Point 60 °F
Humidity 42%
Rainfall 0.00 in
Snow Depth Not available.
UV 8.0 out of 12
Pollen 8.40 out of 12
Air Quality Not available.
Flu Activity Not available.
METAR KARB 021653Z 22016G20KT 10SM CLR 29/19 A2982 RMK AO2 SLP094 T02940194

More Conditions Fewer Conditions

10-Day Weather Forecast

×

Almanac

Astronomy

Aug. 02, 2015 Rise Set
Actual Time
Civil Twilight
Nautical Twilight
Astronomical Twilight
Moon
Length of Visible Light
Length of Day
Tomorrow will be .
, % of the Moon is Illuminated

Today's Extremes

State Highs State Lows

Community

WunderPhotos

Upload Photos

1,843,323 photos uploaded!

WunderBlogs® & News

Nearby

Air Quality

  Air Quality AQ Index Pollutant
Not available.

Snow Depth

Station Depth Elevation

Earthquake Activity

City Distance Mag. Time & Date
Minimum magnitude displayed is 2.5.

Coastal Water Temperatures

Place Temperature

Stations

Nearby Weather Stations

Station Location Temp. Windchill Dew Point Humidity Wind Precip. Elev Updated Type